createdAt,value
2022-11-17T00:02:25.249Z,100.00
2022-11-17T00:05:40.948Z,100.00
2022-11-17T00:08:58.107Z,100.00
2022-11-17T00:12:27.281Z,100.00
2022-11-17T00:15:45.878Z,100.00
2022-11-17T00:19:13.579Z,100.00
2022-11-17T00:22:16.781Z,100.00
2022-11-17T00:25:19.154Z,100.00
2022-11-17T00:28:31.997Z,100.00
2022-11-17T00:31:58.482Z,100.00
2022-11-17T00:35:00.973Z,100.00
2022-11-17T00:38:20.050Z,100.00
2022-11-17T00:41:27.602Z,100.00
2022-11-17T00:44:41.008Z,100.00
2022-11-17T00:47:43.736Z,100.00
2022-11-17T00:50:46.252Z,100.00
2022-11-17T00:53:49.877Z,100.00
2022-11-17T00:56:58.689Z,100.00
2022-11-17T01:00:05.056Z,100.00
2022-11-17T01:03:10.041Z,100.00
2022-11-17T01:06:35.291Z,100.00
2022-11-17T01:09:43.214Z,100.00
2022-11-17T01:12:55.581Z,100.00
2022-11-17T01:16:02.572Z,100.00
2022-11-17T01:19:08.796Z,100.00
2022-11-17T01:22:11.442Z,100.00
2022-11-17T01:25:14.931Z,100.00
2022-11-17T01:28:17.650Z,100.00
2022-11-17T01:31:28.675Z,100.00
2022-11-17T01:34:31.254Z,100.00
2022-11-17T01:37:33.832Z,100.00
2022-11-17T01:40:37.040Z,100.00
2022-11-17T01:43:45.365Z,100.00
2022-11-17T01:46:55.751Z,100.00
2022-11-17T01:50:09.131Z,100.00
2022-11-17T01:53:15.109Z,100.00
2022-11-17T01:56:21.662Z,100.00
2022-11-17T01:59:36.400Z,100.00
2022-11-17T02:02:40.028Z,100.00
2022-11-17T02:06:01.759Z,100.00
2022-11-17T02:09:04.896Z,100.00
2022-11-17T02:12:13.794Z,100.00
2022-11-17T02:15:20.996Z,100.00
2022-11-17T02:18:24.665Z,100.00
2022-11-17T02:21:38.755Z,100.00
2022-11-17T02:24:58.491Z,100.00
2022-11-17T02:28:13.093Z,100.00
2022-11-17T02:31:25.254Z,100.00
2022-11-17T02:34:54.867Z,100.00
2022-11-17T02:38:21.717Z,100.00
2022-11-17T02:41:25.607Z,100.00
2022-11-17T02:44:39.685Z,100.00
2022-11-17T02:47:44.096Z,100.00
2022-11-17T02:50:48.720Z,100.00
2022-11-17T02:53:57.141Z,100.00
2022-11-17T02:57:02.080Z,100.00
2022-11-17T03:00:16.933Z,100.00
2022-11-17T03:03:39.187Z,100.00
2022-11-17T03:07:01.179Z,100.00
2022-11-17T03:10:19.062Z,100.00
2022-11-17T03:13:38.631Z,100.00
2022-11-17T03:16:50.925Z,100.00
2022-11-17T03:20:03.658Z,100.00
2022-11-17T03:23:12.267Z,100.00
2022-11-17T03:26:22.006Z,100.00
2022-11-17T03:29:27.801Z,100.00
2022-11-17T03:32:39.248Z,100.00
2022-11-17T03:35:49.324Z,100.00
2022-11-17T03:39:00.809Z,100.00
2022-11-17T03:42:16.783Z,100.00
2022-11-17T03:45:24.995Z,100.00
2022-11-17T03:48:37.803Z,100.00
2022-11-17T03:51:42.759Z,100.00
2022-11-17T03:54:46.549Z,100.00
2022-11-17T03:57:48.997Z,100.00
2022-11-17T04:00:54.266Z,100.00
2022-11-17T04:03:57.775Z,100.00
2022-11-17T04:07:01.084Z,100.00
2022-11-17T04:10:07.367Z,100.00
2022-11-17T04:13:28.961Z,100.00
2022-11-17T04:16:32.431Z,100.00
2022-11-17T04:19:42.914Z,100.00
2022-11-17T04:22:45.929Z,100.00
2022-11-17T04:26:08.578Z,100.00
2022-11-17T04:29:11.855Z,100.00
2022-11-17T04:32:14.525Z,100.00
2022-11-17T04:35:16.880Z,100.00
2022-11-17T04:38:21.116Z,100.00
2022-11-17T04:41:43.980Z,100.00
2022-11-17T04:44:46.452Z,100.00
2022-11-17T04:47:55.270Z,100.00
2022-11-17T04:50:57.789Z,100.00
2022-11-17T04:54:02.490Z,100.00
2022-11-17T04:57:05.350Z,100.00
2022-11-17T05:00:08.862Z,100.00
2022-11-17T05:03:11.761Z,100.00
2022-11-17T05:06:19.547Z,100.00
2022-11-17T05:09:22.844Z,100.00
2022-11-17T05:12:44.571Z,100.00
2022-11-17T05:16:08.448Z,100.00
2022-11-17T05:19:19.736Z,100.00
2022-11-17T05:22:46.516Z,100.00
2022-11-17T05:25:49.875Z,100.00
2022-11-17T05:28:52.963Z,100.00
2022-11-17T05:31:55.747Z,100.00
2022-11-17T05:34:59.073Z,100.00
2022-11-17T05:38:01.622Z,100.00
2022-11-17T05:41:06.316Z,100.00
2022-11-17T05:44:08.825Z,100.00
2022-11-17T05:47:11.963Z,100.00
2022-11-17T05:50:15.535Z,100.00
2022-11-17T05:53:19.745Z,100.00
2022-11-17T05:56:22.928Z,100.00
2022-11-17T05:59:35.452Z,100.00
2022-11-17T06:02:41.202Z,100.00
2022-11-17T06:05:44.701Z,100.00
2022-11-17T06:08:47.308Z,100.00
2022-11-17T06:11:50.507Z,100.00
2022-11-17T06:14:55.151Z,100.00
2022-11-17T06:18:02.112Z,100.00
2022-11-17T06:21:05.052Z,100.00
2022-11-17T06:24:08.661Z,100.00
2022-11-17T06:27:13.600Z,100.00
2022-11-17T06:30:17.609Z,100.00
2022-11-17T06:33:21.016Z,100.00
2022-11-17T06:36:25.836Z,100.00
2022-11-17T06:39:29.550Z,100.00
2022-11-17T06:42:55.488Z,100.00
2022-11-17T06:45:58.058Z,100.00
2022-11-17T06:49:01.122Z,100.00
2022-11-17T06:52:04.551Z,100.00
2022-11-17T06:55:11.972Z,100.00
2022-11-17T06:58:15.763Z,100.00
2022-11-17T07:01:19.605Z,100.00
2022-11-17T07:04:25.614Z,100.00
2022-11-17T07:07:28.300Z,100.00
2022-11-17T07:10:32.830Z,100.00
2022-11-17T07:13:37.648Z,100.00
2022-11-17T07:16:44.313Z,100.00
2022-11-17T07:19:48.025Z,100.00
2022-11-17T07:22:50.815Z,100.00
2022-11-17T07:25:54.221Z,100.00
2022-11-17T07:28:57.750Z,100.00
2022-11-17T07:32:00.080Z,100.00
2022-11-17T07:35:02.570Z,100.00
2022-11-17T07:38:07.938Z,100.00
2022-11-17T07:41:14.268Z,100.00
2022-11-17T07:44:16.474Z,100.00
2022-11-17T07:47:19.233Z,100.00
2022-11-17T07:50:24.082Z,100.00
2022-11-17T07:53:28.295Z,100.00
2022-11-17T07:56:31.761Z,100.00
2022-11-17T07:59:35.674Z,100.00
2022-11-17T08:02:39.138Z,100.00
2022-11-17T08:05:43.776Z,100.00
2022-11-17T08:08:48.951Z,100.00
2022-11-17T08:11:53.861Z,100.00
2022-11-17T08:14:58.225Z,100.00
2022-11-17T08:18:02.405Z,100.00
2022-11-17T08:21:15.634Z,100.00
2022-11-17T08:24:19.094Z,100.00
2022-11-17T08:27:22.012Z,100.00
2022-11-17T08:30:30.990Z,100.00
2022-11-17T08:33:36.628Z,100.00
2022-11-17T08:36:43.903Z,100.00
2022-11-17T08:39:47.325Z,100.00
2022-11-17T08:43:03.393Z,100.00
2022-11-17T08:46:11.486Z,100.00
2022-11-17T08:49:16.453Z,100.00
2022-11-17T08:52:23.826Z,100.00
2022-11-17T08:55:27.975Z,100.00
2022-11-17T08:58:31.134Z,100.00
2022-11-17T09:01:34.935Z,100.00
2022-11-17T09:04:37.976Z,100.00
2022-11-17T09:07:40.578Z,100.00
2022-11-17T09:10:45.330Z,100.00
2022-11-17T09:13:52.084Z,100.00
2022-11-17T09:16:54.442Z,100.00
2022-11-17T09:19:56.659Z,100.00
2022-11-17T09:23:03.320Z,100.00
2022-11-17T09:26:16.385Z,100.00
2022-11-17T09:29:19.760Z,100.00
2022-11-17T09:36:02.172Z,100.00
2022-11-17T09:39:14.529Z,100.00
2022-11-17T09:42:49.875Z,100.00
2022-11-17T09:46:15.961Z,100.00
2022-11-17T09:49:55.096Z,100.00
2022-11-17T09:56:50.427Z,100.00
2022-11-17T10:07:04.249Z,100.00
2022-11-17T10:10:41.439Z,100.00
2022-11-17T10:13:54.565Z,100.00
2022-11-17T10:17:48.723Z,100.00
2022-11-17T10:28:03.894Z,100.00
2022-11-17T10:31:22.496Z,100.00
2022-11-17T10:34:43.401Z,99.14
2022-11-17T10:37:53.925Z,99.60
2022-11-17T10:41:04.125Z,100.00
2022-11-17T10:51:39.092Z,100.00
2022-11-17T10:54:41.520Z,98.30
2022-11-17T10:57:47.357Z,100.00
2022-11-17T11:01:03.141Z,100.00
2022-11-17T11:04:51.957Z,98.95
2022-11-17T11:08:21.458Z,99.35
2022-11-17T11:11:46.058Z,96.78
2022-11-17T11:14:59.187Z,97.70
2022-11-17T11:18:15.243Z,95.84
2022-11-17T11:21:46.199Z,94.84
2022-11-17T11:35:38.704Z,97.32
2022-11-17T11:39:07.008Z,94.01
2022-11-17T11:42:12.331Z,93.91
2022-11-17T11:45:15.678Z,96.29
2022-11-17T11:48:22.460Z,92.03
2022-11-17T11:51:41.062Z,91.07
2022-11-17T11:55:04.105Z,93.29
2022-11-17T11:58:37.550Z,92.62
2022-11-17T12:01:42.971Z,93.90
2022-11-17T12:04:51.624Z,92.28
2022-11-17T12:08:07.412Z,93.04
2022-11-17T12:11:35.034Z,94.02
2022-11-17T12:14:38.852Z,93.48
2022-11-17T12:18:01.488Z,91.15
2022-11-17T12:21:06.907Z,92.96
2022-11-17T12:24:41.667Z,90.20
2022-11-17T12:27:44.055Z,89.31
2022-11-17T12:30:59.318Z,89.99
2022-11-17T12:34:15.772Z,89.91
2022-11-17T12:37:27.358Z,91.05
2022-11-17T12:40:55.703Z,90.44
2022-11-17T12:44:22.669Z,90.96
2022-11-17T12:47:39.912Z,93.03
2022-11-17T12:51:08.389Z,91.87
2022-11-17T12:54:15.769Z,89.10
2022-11-17T12:57:27.885Z,90.80
2022-11-17T13:00:35.171Z,91.60
2022-11-17T13:03:46.211Z,87.87
2022-11-17T13:07:06.660Z,87.84
2022-11-17T13:10:28.389Z,88.79
2022-11-17T13:13:30.264Z,90.52
2022-11-17T13:16:44.101Z,92.12
2022-11-17T13:20:10.790Z,92.80
2022-11-17T13:23:33.577Z,97.09
2022-11-17T13:26:41.816Z,97.21
2022-11-17T13:30:15.130Z,94.49
2022-11-17T13:33:39.994Z,97.35
2022-11-17T13:37:10.910Z,97.58
2022-11-17T13:40:26.837Z,96.55
2022-11-17T13:43:37.319Z,99.76
2022-11-17T13:46:53.595Z,97.87
2022-11-17T13:50:16.343Z,97.63
2022-11-17T13:53:47.845Z,98.42
2022-11-17T13:56:59.004Z,100.00
2022-11-17T14:00:12.939Z,100.00
2022-11-17T14:03:48.865Z,100.00
2022-11-17T14:07:08.253Z,100.00
2022-11-17T14:10:20.180Z,100.00
2022-11-17T14:13:24.566Z,100.00
2022-11-17T14:16:36.754Z,100.00
2022-11-17T14:20:06.085Z,100.00
2022-11-17T14:23:09.003Z,100.00
2022-11-17T14:26:30.761Z,100.00
2022-11-17T14:29:50.742Z,100.00
2022-11-17T14:33:14.890Z,100.00
2022-11-17T14:36:18.229Z,100.00
2022-11-17T14:39:25.631Z,100.00
2022-11-17T14:42:37.197Z,100.00
2022-11-17T14:45:58.875Z,100.00
2022-11-17T14:49:10.024Z,100.00
2022-11-17T14:52:13.782Z,100.00
2022-11-17T14:55:23.013Z,100.00
2022-11-17T14:58:29.663Z,100.00
2022-11-17T15:01:43.353Z,100.00
2022-11-17T15:04:51.403Z,100.00
2022-11-17T15:08:02.581Z,100.00
2022-11-17T15:11:15.704Z,100.00
2022-11-17T15:14:35.220Z,100.00
2022-11-17T15:17:38.127Z,100.00
2022-11-17T15:20:45.367Z,100.00
2022-11-17T15:24:13.678Z,100.00
2022-11-17T15:27:18.793Z,100.00
2022-11-17T15:30:24.356Z,100.00
2022-11-17T15:33:36.750Z,100.00
2022-11-17T15:36:44.647Z,100.00
2022-11-17T15:40:00.849Z,100.00
2022-11-17T15:43:19.655Z,100.00
2022-11-17T15:46:52.896Z,100.00
2022-11-17T15:50:02.092Z,100.00
2022-11-17T15:53:15.969Z,100.00
2022-11-17T15:56:32.507Z,100.00
2022-11-17T16:03:51.305Z,100.00
2022-11-17T16:07:06.081Z,100.00
2022-11-17T16:10:13.491Z,100.00
2022-11-17T16:13:15.762Z,100.00
2022-11-17T16:16:19.761Z,100.00
2022-11-17T16:19:25.920Z,100.00
2022-11-17T16:22:45.515Z,100.00
2022-11-17T16:26:05.948Z,100.00
2022-11-17T16:29:12.956Z,100.00
2022-11-17T16:32:20.305Z,100.00
2022-11-17T16:35:33.744Z,100.00
2022-11-17T16:39:00.507Z,100.00
2022-11-17T16:45:52.268Z,100.00
2022-11-17T16:48:55.744Z,100.00
2022-11-17T16:52:11.572Z,100.00
2022-11-17T16:55:13.912Z,100.00
2022-11-17T16:58:33.809Z,100.00
2022-11-17T17:01:36.288Z,100.00
2022-11-17T17:04:39.688Z,100.00
2022-11-17T17:07:43.069Z,100.00
2022-11-17T17:10:57.028Z,100.00
2022-11-17T17:14:00.841Z,100.00
2022-11-17T17:17:20.965Z,100.00
2022-11-17T17:20:41.662Z,100.00
2022-11-17T17:23:46.467Z,100.00
2022-11-17T17:27:03.082Z,100.00
2022-11-17T17:30:07.706Z,100.00
2022-11-17T17:33:10.317Z,100.00
2022-11-17T17:43:21.984Z,100.00
2022-11-17T17:46:33.922Z,100.00
2022-11-17T17:49:46.949Z,100.00
2022-11-17T17:52:55.903Z,100.00
2022-11-17T17:56:26.290Z,100.00
2022-11-17T17:59:36.562Z,100.00
2022-11-17T18:02:39.393Z,100.00
2022-11-17T18:05:45.380Z,100.00
2022-11-17T18:08:59.275Z,100.00
2022-11-17T18:15:40.433Z,100.00
2022-11-17T18:19:00.200Z,100.00
2022-11-17T18:22:08.894Z,100.00
2022-11-17T18:25:15.181Z,100.00
2022-11-17T18:28:27.937Z,100.00
2022-11-17T18:31:47.834Z,100.00
2022-11-17T18:38:21.171Z,100.00
2022-11-17T18:41:34.889Z,100.00
2022-11-17T18:44:38.171Z,100.00
2022-11-17T18:48:10.999Z,100.00
2022-11-17T18:51:19.513Z,100.00
2022-11-17T18:54:50.058Z,100.00
2022-11-17T18:58:24.577Z,100.00
2022-11-17T19:01:50.996Z,100.00
2022-11-17T19:08:54.874Z,100.00
2022-11-17T19:11:58.454Z,100.00
2022-11-17T19:15:00.526Z,100.00
2022-11-17T19:21:27.123Z,100.00
2022-11-17T19:24:59.349Z,100.00
2022-11-17T19:28:02.176Z,100.00
2022-11-17T19:31:31.930Z,100.00
2022-11-17T19:34:45.248Z,100.00
2022-11-17T19:37:47.253Z,100.00
2022-11-17T19:40:49.629Z,100.00
2022-11-17T19:44:01.625Z,100.00
2022-11-17T19:47:19.866Z,100.00
2022-11-17T19:50:35.930Z,100.00
2022-11-17T19:53:40.781Z,100.00
2022-11-17T19:56:43.009Z,100.00
2022-11-17T20:00:03.655Z,100.00
2022-11-17T20:03:08.294Z,100.00
2022-11-17T20:06:21.008Z,100.00
2022-11-17T20:09:48.925Z,100.00
2022-11-17T20:12:55.270Z,100.00
2022-11-17T20:23:01.118Z,100.00
2022-11-17T20:26:42.396Z,100.00
2022-11-17T20:29:51.977Z,100.00
2022-11-17T20:33:04.064Z,100.00
2022-11-17T20:40:02.895Z,100.00
2022-11-17T20:43:22.233Z,100.00
2022-11-17T20:46:25.762Z,100.00
2022-11-17T20:49:29.413Z,100.00
2022-11-17T20:52:44.129Z,100.00
2022-11-17T20:55:47.005Z,100.00
2022-11-17T20:59:06.857Z,100.00
2022-11-17T21:02:14.996Z,100.00
2022-11-17T21:09:14.562Z,100.00
2022-11-17T21:12:19.348Z,100.00
2022-11-17T21:15:32.397Z,100.00
2022-11-17T21:18:47.122Z,100.00
2022-11-17T21:22:11.528Z,100.00
2022-11-17T21:25:23.334Z,100.00
2022-11-17T21:28:33.073Z,100.00
2022-11-17T21:31:45.210Z,100.00
2022-11-17T21:34:49.851Z,100.00
2022-11-17T21:38:06.671Z,100.00
2022-11-17T21:41:22.015Z,100.00
2022-11-17T21:44:30.936Z,100.00
2022-11-17T22:01:01.744Z,100.00
2022-11-17T22:04:05.997Z,100.00
2022-11-17T22:07:22.250Z,100.00
2022-11-17T22:10:28.080Z,100.00
2022-11-17T22:13:30.565Z,100.00
2022-11-17T22:16:39.435Z,100.00
2022-11-17T22:19:42.311Z,100.00
2022-11-17T22:23:00.379Z,100.00
2022-11-17T22:26:20.562Z,100.00
2022-11-17T22:29:23.326Z,100.00
2022-11-17T22:32:34.706Z,100.00
2022-11-17T22:36:33.659Z,100.00
2022-11-17T22:39:49.933Z,100.00
2022-11-17T22:43:04.572Z,100.00
2022-11-17T22:46:16.001Z,100.00
2022-11-17T22:49:21.814Z,100.00
2022-11-17T23:48:44.599Z,100.00
2022-11-17T23:51:48.283Z,100.00
2022-11-17T23:54:50.559Z,100.00
2022-11-17T23:57:52.824Z,100.00
